Buoy 46930

sailwx.info

Track history (hours):
 
Tides and Currents Weather Stations Pressure Air Temp Water Temp Dewpoint Dewpoint Depression Visibility Wind Speed Wind Dir Waves Ship Positions

Drifting buoy 46930

Last reported at 2015-Feb-27 05:00 UTC. Time now 2015-Feb-27 07:37 UTC.
Position N 18°14' W 118°48'.

Date/timePositionNaut miles runAvg speedWind from/ knotsBaromVisibWave heightAir tempDewpointWater temp
2015-Feb-27 05:00N 18°14' W 118°48'5 0.9
2015-Feb-26 23:00N 18°16' W 118°44'3 1.6
2015-Feb-26 21:00N 18°19' W 118°42'0 0.1
2015-Feb-26 18:00N 18°20' W 118°42'2 0.4
2015-Feb-26 13:00N 18°22' W 118°41'0 0.2
2015-Feb-26 12:00N 18°22' W 118°41'1 0.5
2015-Feb-26 11:00N 18°22' W 118°40'1 0.4
2015-Feb-26 09:00N 18°23' W 118°40'1 0.3
2015-Feb-26 06:00N 18°22' W 118°40'0 0.2
2015-Feb-26 05:00N 18°22' W 118°40'1 1.1
2015-Feb-26 04:00N 18°22' W 118°39'2 0.8
2015-Feb-26 02:00N 18°23' W 118°37'1 0.4
2015-Feb-26 00:00N 18°23' W 118°36'0 0.1
2015-Feb-25 23:00N 18°23' W 118°36'2 2.1
2015-Feb-25 22:00N 18°24' W 118°35'0 0.4
2015-Feb-25 21:00N 18°24' W 118°35'0 0.0
2015-Feb-25 20:00N 18°24' W 118°35'1 0.6
2015-Feb-25 18:00N 18°26' W 118°34'0 0.2
2015-Feb-25 17:00N 18°26' W 118°35'2 2.3
2015-Feb-25 16:00N 18°27' W 118°33'0 0.0
2015-Feb-25 15:00N 18°27' W 118°33'1 0.7
2015-Feb-25 13:00N 18°28' W 118°31'0 0.2
2015-Feb-25 12:00N 18°28' W 118°31'1 1.1
2015-Feb-25 11:00N 18°29' W 118°30'0 0.2
2015-Feb-25 10:00N 18°29' W 118°30'1 0.5
2015-Feb-25 08:00N 18°30' W 118°30'2 1.0
2015-Feb-25 06:00N 18°31' W 118°28'1 0.6
2015-Feb-25 04:00N 18°31' W 118°27'1 1.1
2015-Feb-25 03:00N 18°32' W 118°26'1 1.3
2015-Feb-25 02:00N 18°33' W 118°26'1 1.1
2015-Feb-25 01:00N 18°33' W 118°24'1 0.3
2015-Feb-24 23:00N 18°33' W 118°24'2 0.9
2015-Feb-24 21:00N 18°34' W 118°22'0 0.2
2015-Feb-24 20:00N 18°34' W 118°22'1 1.4
2015-Feb-24 19:00N 18°36' W 118°21'1 0.9
2015-Feb-24 18:00N 18°36' W 118°21'2 0.8
2015-Feb-24 15:00N 18°38' W 118°20'0 0.2
2015-Feb-24 14:00N 18°38' W 118°20'0 0.5
2015-Feb-24 13:00N 18°39' W 118°20'1 0.6
2015-Feb-24 12:00N 18°39' W 118°19'2 0.6
2015-Feb-24 08:00N 18°41' W 118°17'2 1.2
2015-Feb-24 06:00N 18°43' W 118°16'3 1.4
2015-Feb-24 04:00N 18°45' W 118°15'1 0.6
2015-Feb-24 03:00N 18°46' W 118°14'0 0.3
2015-Feb-24 02:00N 18°46' W 118°14'0 0.0
2015-Feb-24 01:00N 18°46' W 118°14'1 1.0
2015-Feb-24 00:00N 18°47' W 118°14'0 0.1
2015-Feb-23 23:00N 18°47' W 118°14'1 1.3
2015-Feb-23 22:00N 18°48' W 118°13'1 0.5
2015-Feb-23 20:00N 18°49' W 118°13'2 0.7
2015-Feb-23 17:00N 18°51' W 118°12'2 1.9
2015-Feb-23 16:00N 18°52' W 118°11'0 0.0
2015-Feb-23 15:00N 18°52' W 118°11'2 1.0
2015-Feb-23 13:00N 18°54' W 118°09'2 1.8
2015-Feb-23 12:00N 18°55' W 118°08'1 0.4
2015-Feb-23 09:00N 18°56' W 118°07'2 0.8
2015-Feb-23 06:00N 18°58' W 118°06'0 0.3
2015-Feb-23 05:00N 18°59' W 118°06'2 0.5
2015-Feb-23 02:00N 18°60' W 118°05'1 0.8
2015-Feb-23 01:00N 19°00' W 118°06'1 0.5
2015-Feb-23 00:00N 19°01' W 118°06'1 1.5
2015-Feb-22 23:00N 19°01' W 118°05'0 0.0
2015-Feb-22 22:00N 19°01' W 118°05'0 0.2
2015-Feb-22 20:00N 19°02' W 118°05'1 1.5
2015-Feb-22 19:00N 19°03' W 118°04'1 0.5
2015-Feb-22 17:00N 19°04' W 118°04'2 0.8
2015-Feb-22 15:00N 19°05' W 118°03'1 0.5
2015-Feb-22 14:00N 19°05' W 118°02'1 0.8
2015-Feb-22 13:00N 19°06' W 118°02'0 0.3
2015-Feb-22 12:00N 19°06' W 118°02'4 0.7
2015-Feb-22 06:00N 19°10' W 118°01'1 0.8
2015-Feb-22 05:00N 19°11' W 118°02'1 0.7
2015-Feb-22 04:00N 19°11' W 118°01'2 1.6
2015-Feb-22 03:00N 19°12' W 118°02'0 0.0
2015-Feb-22 02:00N 19°12' W 118°02'0 0.3
2015-Feb-22 01:00N 19°13' W 118°02'1 0.6
2015-Feb-21 23:00N 19°13' W 118°01'8 0.6
2015-Feb-21 10:00N 19°21' W 118°05'2 0.5
2015-Feb-21 06:00N 19°22' W 118°06'2 0.6
2015-Feb-21 03:00N 19°24' W 118°07'2 0.6
2015-Feb-21 00:00N 19°24' W 118°09'0 0.2
2015-Feb-20 23:00N 19°24' W 118°09'1 0.5
2015-Feb-20 21:00N 19°25' W 118°09'1 1.3
2015-Feb-20 20:00N 19°26' W 118°08'1 0.3
2015-Feb-20 17:00N 19°27' W 118°08'0 0.0
2015-Feb-20 16:00N 19°27' W 118°08'3 1.2
2015-Feb-20 13:00N 19°30' W 118°07'1 1.3
2015-Feb-20 12:00N 19°31' W 118°07'5 0.8
2015-Feb-20 06:00N 19°35' W 118°10'3 0.2
2015-Feb-19 17:00N 19°35' W 118°13'1 0.6
2015-Feb-19 15:00N 19°35' W 118°12'0 0.2
2015-Feb-19 13:00N 19°35' W 118°12'5 0.6
2015-Feb-19 05:00N 19°40' W 118°12'1 0.3
2015-Feb-19 03:00N 19°40' W 118°12'1 0.6
2015-Feb-19 02:00N 19°41' W 118°12'1 0.3
2015-Feb-18 23:00N 19°42' W 118°12'2 0.3
2015-Feb-18 14:00N 19°43' W 118°13'0 0.3
2015-Feb-18 13:00N 19°44' W 118°13'0 0.0
2015-Feb-18 12:00N 19°44' W 118°13'0 0.0
2015-Feb-18 11:00N 19°44' W 118°13'0 0.0
2015-Feb-18 08:00N 19°44' W 118°13'1 0.4
2015-Feb-18 06:00N 19°44' W 118°13'0 0.2
2015-Feb-18 04:00N 19°45' W 118°13'1 0.5
2015-Feb-18 03:00N 19°45' W 118°13'1 0.6
2015-Feb-18 02:00N 19°44' W 118°13'0 0.1
2015-Feb-18 00:00N 19°44' W 118°13'0 0.2
2015-Feb-17 23:00N 19°44' W 118°13'1 0.3
2015-Feb-17 21:00N 19°44' W 118°14'1 0.6
2015-Feb-17 19:00N 19°45' W 118°13'0 0.1
2015-Feb-17 15:00N 19°45' W 118°13'0 0.2
2015-Feb-17 13:00N 19°45' W 118°13'0 0.2
2015-Feb-17 12:00N 19°45' W 118°13'0 0.2
2015-Feb-17 11:00N 19°45' W 118°13'1 0.3
2015-Feb-17 09:00N 19°46' W 118°13'0 0.0
2015-Feb-17 07:00N 19°46' W 118°13'0 0.2
2015-Feb-17 05:00N 19°46' W 118°13'  
Track history (hours):
 
Tides and Currents Weather Stations Pressure Air Temp Water Temp Dewpoint Dewpoint Depression Visibility Wind Speed Wind Dir Waves Ship Positions

Drifting buoy 46930

Last reported at 2015-Feb-27 05:00 UTC. Time now 2015-Feb-27 07:37 UTC.
Position N 18°14' W 118°48'.

Date/timePositionNaut miles runAvg speedWind from/ knotsBaromVisibWave heightAir tempDewpointWater temp
2015-Feb-27 05:00N 18°14' W 118°48'5 0.9
2015-Feb-26 23:00N 18°16' W 118°44'3 1.6
2015-Feb-26 21:00N 18°19' W 118°42'0 0.1
2015-Feb-26 18:00N 18°20' W 118°42'2 0.4
2015-Feb-26 13:00N 18°22' W 118°41'0 0.2
2015-Feb-26 12:00N 18°22' W 118°41'1 0.5
2015-Feb-26 11:00N 18°22' W 118°40'1 0.4
2015-Feb-26 09:00N 18°23' W 118°40'1 0.3
2015-Feb-26 06:00N 18°22' W 118°40'0 0.2
2015-Feb-26 05:00N 18°22' W 118°40'1 1.1
2015-Feb-26 04:00N 18°22' W 118°39'2 0.8
2015-Feb-26 02:00N 18°23' W 118°37'1 0.4
2015-Feb-26 00:00N 18°23' W 118°36'0 0.1
2015-Feb-25 23:00N 18°23' W 118°36'2 2.1
2015-Feb-25 22:00N 18°24' W 118°35'0 0.4
2015-Feb-25 21:00N 18°24' W 118°35'0 0.0
2015-Feb-25 20:00N 18°24' W 118°35'1 0.6
2015-Feb-25 18:00N 18°26' W 118°34'0 0.2
2015-Feb-25 17:00N 18°26' W 118°35'2 2.3
2015-Feb-25 16:00N 18°27' W 118°33'0 0.0
2015-Feb-25 15:00N 18°27' W 118°33'1 0.7
2015-Feb-25 13:00N 18°28' W 118°31'0 0.2
2015-Feb-25 12:00N 18°28' W 118°31'1 1.1
2015-Feb-25 11:00N 18°29' W 118°30'0 0.2
2015-Feb-25 10:00N 18°29' W 118°30'1 0.5
2015-Feb-25 08:00N 18°30' W 118°30'2 1.0
2015-Feb-25 06:00N 18°31' W 118°28'1 0.6
2015-Feb-25 04:00N 18°31' W 118°27'1 1.1
2015-Feb-25 03:00N 18°32' W 118°26'1 1.3
2015-Feb-25 02:00N 18°33' W 118°26'1 1.1
2015-Feb-25 01:00N 18°33' W 118°24'1 0.3
2015-Feb-24 23:00N 18°33' W 118°24'2 0.9
2015-Feb-24 21:00N 18°34' W 118°22'0 0.2
2015-Feb-24 20:00N 18°34' W 118°22'1 1.4
2015-Feb-24 19:00N 18°36' W 118°21'1 0.9
2015-Feb-24 18:00N 18°36' W 118°21'2 0.8
2015-Feb-24 15:00N 18°38' W 118°20'0 0.2
2015-Feb-24 14:00N 18°38' W 118°20'0 0.5
2015-Feb-24 13:00N 18°39' W 118°20'1 0.6
2015-Feb-24 12:00N 18°39' W 118°19'2 0.6
2015-Feb-24 08:00N 18°41' W 118°17'2 1.2
2015-Feb-24 06:00N 18°43' W 118°16'3 1.4
2015-Feb-24 04:00N 18°45' W 118°15'1 0.6
2015-Feb-24 03:00N 18°46' W 118°14'0 0.3
2015-Feb-24 02:00N 18°46' W 118°14'0 0.0
2015-Feb-24 01:00N 18°46' W 118°14'1 1.0
2015-Feb-24 00:00N 18°47' W 118°14'0 0.1
2015-Feb-23 23:00N 18°47' W 118°14'1 1.3
2015-Feb-23 22:00N 18°48' W 118°13'1 0.5
2015-Feb-23 20:00N 18°49' W 118°13'2 0.7
2015-Feb-23 17:00N 18°51' W 118°12'2 1.9
2015-Feb-23 16:00N 18°52' W 118°11'0 0.0
2015-Feb-23 15:00N 18°52' W 118°11'2 1.0
2015-Feb-23 13:00N 18°54' W 118°09'2 1.8
2015-Feb-23 12:00N 18°55' W 118°08'1 0.4
2015-Feb-23 09:00N 18°56' W 118°07'2 0.8
2015-Feb-23 06:00N 18°58' W 118°06'0 0.3
2015-Feb-23 05:00N 18°59' W 118°06'2 0.5
2015-Feb-23 02:00N 18°60' W 118°05'1 0.8
2015-Feb-23 01:00N 19°00' W 118°06'1 0.5
2015-Feb-23 00:00N 19°01' W 118°06'1 1.5
2015-Feb-22 23:00N 19°01' W 118°05'0 0.0
2015-Feb-22 22:00N 19°01' W 118°05'0 0.2
2015-Feb-22 20:00N 19°02' W 118°05'1 1.5
2015-Feb-22 19:00N 19°03' W 118°04'1 0.5
2015-Feb-22 17:00N 19°04' W 118°04'2 0.8
2015-Feb-22 15:00N 19°05' W 118°03'1 0.5
2015-Feb-22 14:00N 19°05' W 118°02'1 0.8
2015-Feb-22 13:00N 19°06' W 118°02'0 0.3
2015-Feb-22 12:00N 19°06' W 118°02'4 0.7
2015-Feb-22 06:00N 19°10' W 118°01'1 0.8
2015-Feb-22 05:00N 19°11' W 118°02'1 0.7
2015-Feb-22 04:00N 19°11' W 118°01'2 1.6
2015-Feb-22 03:00N 19°12' W 118°02'0 0.0
2015-Feb-22 02:00N 19°12' W 118°02'0 0.3
2015-Feb-22 01:00N 19°13' W 118°02'1 0.6
2015-Feb-21 23:00N 19°13' W 118°01'8 0.6
2015-Feb-21 10:00N 19°21' W 118°05'2 0.5
2015-Feb-21 06:00N 19°22' W 118°06'2 0.6
2015-Feb-21 03:00N 19°24' W 118°07'2 0.6
2015-Feb-21 00:00N 19°24' W 118°09'0 0.2
2015-Feb-20 23:00N 19°24' W 118°09'1 0.5
2015-Feb-20 21:00N 19°25' W 118°09'1 1.3
2015-Feb-20 20:00N 19°26' W 118°08'1 0.3
2015-Feb-20 17:00N 19°27' W 118°08'0 0.0
2015-Feb-20 16:00N 19°27' W 118°08'3 1.2
2015-Feb-20 13:00N 19°30' W 118°07'1 1.3
2015-Feb-20 12:00N 19°31' W 118°07'5 0.8
2015-Feb-20 06:00N 19°35' W 118°10'3 0.2
2015-Feb-19 17:00N 19°35' W 118°13'1 0.6
2015-Feb-19 15:00N 19°35' W 118°12'0 0.2
2015-Feb-19 13:00N 19°35' W 118°12'5 0.6
2015-Feb-19 05:00N 19°40' W 118°12'1 0.3
2015-Feb-19 03:00N 19°40' W 118°12'1 0.6
2015-Feb-19 02:00N 19°41' W 118°12'1 0.3
2015-Feb-18 23:00N 19°42' W 118°12'2 0.3
2015-Feb-18 14:00N 19°43' W 118°13'0 0.3
2015-Feb-18 13:00N 19°44' W 118°13'0 0.0
2015-Feb-18 12:00N 19°44' W 118°13'0 0.0
2015-Feb-18 11:00N 19°44' W 118°13'0 0.0
2015-Feb-18 08:00N 19°44' W 118°13'1 0.4
2015-Feb-18 06:00N 19°44' W 118°13'0 0.2
2015-Feb-18 04:00N 19°45' W 118°13'1 0.5
2015-Feb-18 03:00N 19°45' W 118°13'1 0.6
2015-Feb-18 02:00N 19°44' W 118°13'0 0.1
2015-Feb-18 00:00N 19°44' W 118°13'0 0.2
2015-Feb-17 23:00N 19°44' W 118°13'1 0.3
2015-Feb-17 21:00N 19°44' W 118°14'1 0.6
2015-Feb-17 19:00N 19°45' W 118°13'0 0.1
2015-Feb-17 15:00N 19°45' W 118°13'0 0.2
2015-Feb-17 13:00N 19°45' W 118°13'0 0.2
2015-Feb-17 12:00N 19°45' W 118°13'0 0.2
2015-Feb-17 11:00N 19°45' W 118°13'1 0.3
2015-Feb-17 09:00N 19°46' W 118°13'0 0.0
2015-Feb-17 07:00N 19°46' W 118°13'0 0.2
2015-Feb-17 05:00N 19°46' W 118°13'  

Dump ship's entire track history